sensor_id;sensor_type;location;lat;lon;timestamp;pressure;altitude;pressure_sealevel;temperature;humidity
54038;BME280;39954;48.844;9.726;2024-02-21T00:00:03;97035.13;;;3.00;100.00
54038;BME280;39954;48.844;9.726;2024-02-21T00:01:08;97041.09;;;3.00;100.00
54038;BME280;39954;48.844;9.726;2024-02-21T00:02:16;97037.69;;;3.00;100.00
54038;BME280;39954;48.844;9.726;2024-02-21T00:03:21;97039.38;;;2.99;100.00
54038;BME280;39954;48.844;9.726;2024-02-21T00:04:23;97040.25;;;3.00;100.00
54038;BME280;39954;48.844;9.726;2024-02-21T00:05:28;97041.94;;;2.99;100.00
54038;BME280;39954;48.844;9.726;2024-02-21T00:06:30;97031.66;;;3.01;100.00
54038;BME280;39954;48.844;9.726;2024-02-21T00:07:35;97036.78;;;3.04;100.00
54038;BME280;39954;48.844;9.726;2024-02-21T00:08:37;97035.00;;;3.09;100.00
54038;BME280;39954;48.844;9.726;2024-02-21T00:09:45;97028.97;;;3.10;100.00
54038;BME280;39954;48.844;9.726;2024-02-21T00:10:47;97030.66;;;3.12;100.00
54038;BME280;39954;48.844;9.726;2024-02-21T00:11:52;97034.13;;;3.11;100.00
54038;BME280;39954;48.844;9.726;2024-02-21T00:12:55;97023.81;;;3.13;100.00
54038;BME280;39954;48.844;9.726;2024-02-21T00:14:01;97032.34;;;3.15;100.00
54038;BME280;39954;48.844;9.726;2024-02-21T00:15:04;97028.91;;;3.18;100.00
54038;BME280;39954;48.844;9.726;2024-02-21T00:16:09;97033.19;;;3.17;100.00
54038;BME280;39954;48.844;9.726;2024-02-21T00:17:12;97022.91;;;3.17;100.00
54038;BME280;39954;48.844;9.726;2024-02-21T00:18:17;97034.03;;;3.18;100.00
54038;BME280;39954;48.844;9.726;2024-02-21T00:19:19;97028.09;;;3.14;100.00
54038;BME280;39954;48.844;9.726;2024-02-21T00:20:22;97016.94;;;3.13;100.00
54038;BME280;39954;48.844;9.726;2024-02-21T00:21:27;97024.63;;;3.17;100.00
54038;BME280;39954;48.844;9.726;2024-02-21T00:22:30;97028.94;;;3.14;100.00
54038;BME280;39954;48.844;9.726;2024-02-21T00:23:35;97020.34;;;3.16;100.00
54038;BME280;39954;48.844;9.726;2024-02-21T00:24:37;97022.91;;;3.17;100.00
54038;BME280;39954;48.844;9.726;2024-02-21T00:25:45;97027.16;;;3.20;100.00
54038;BME280;39954;48.844;9.726;2024-02-21T00:26:47;97024.56;;;3.21;100.00
54038;BME280;39954;48.844;9.726;2024-02-21T00:27:52;97022.84;;;3.23;100.00
54038;BME280;39954;48.844;9.726;2024-02-21T00:28:55;97024.47;;;3.29;100.00
54038;BME280;39954;48.844;9.726;2024-02-21T00:30:00;97019.34;;;3.27;100.00
54038;BME280;39954;48.844;9.726;2024-02-21T00:31:03;97026.25;;;3.25;100.00
54038;BME280;39954;48.844;9.726;2024-02-21T00:32:07;97022.78;;;3.26;100.00
54038;BME280;39954;48.844;9.726;2024-02-21T00:33:10;97021.06;;;3.27;100.00
54038;BME280;39954;48.844;9.726;2024-02-21T00:34:15;97009.94;;;3.28;100.00
54038;BME280;39954;48.844;9.726;2024-02-21T00:35:17;97013.34;;;3.28;100.00
54038;BME280;39954;48.844;9.726;2024-02-21T00:36:23;97014.09;;;3.36;100.00
54038;BME280;39954;48.844;9.726;2024-02-21T00:37:26;97008.09;;;3.36;100.00
54038;BME280;39954;48.844;9.726;2024-02-21T00:38:32;97001.28;;;3.33;100.00
54038;BME280;39954;48.844;9.726;2024-02-21T00:39:34;97005.59;;;3.31;100.00
54038;BME280;39954;48.844;9.726;2024-02-21T00:40:39;97009.91;;;3.31;100.00
54038;BME280;39954;48.844;9.726;2024-02-21T00:41:43;97001.31;;;3.30;100.00
54038;BME280;39954;48.844;9.726;2024-02-21T00:42:46;97004.72;;;3.34;100.00
54038;BME280;39954;48.844;9.726;2024-02-21T00:43:50;97007.28;;;3.34;100.00
54038;BME280;39954;48.844;9.726;2024-02-21T00:44:53;97004.72;;;3.32;100.00
54038;BME280;39954;48.844;9.726;2024-02-21T00:45:58;96999.63;;;3.31;100.00
54038;BME280;39954;48.844;9.726;2024-02-21T00:47:00;96996.16;;;3.30;100.00
54038;BME280;39954;48.844;9.726;2024-02-21T00:48:05;96988.50;;;3.27;100.00
54038;BME280;39954;48.844;9.726;2024-02-21T00:49:08;96985.13;;;3.25;100.00
54038;BME280;39954;48.844;9.726;2024-02-21T00:50:12;96993.72;;;3.21;100.00
54038;BME280;39954;48.844;9.726;2024-02-21T00:51:15;96991.22;;;3.18;100.00
54038;BME280;39954;48.844;9.726;2024-02-21T00:52:17;96988.69;;;3.17;100.00
54038;BME280;39954;48.844;9.726;2024-02-21T00:53:22;96994.69;;;3.14;100.00
54038;BME280;39954;48.844;9.726;2024-02-21T00:54:24;96999.84;;;3.12;100.00
54038;BME280;39954;48.844;9.726;2024-02-21T00:55:41;96983.59;;;3.10;100.00
54038;BME280;39954;48.844;9.726;2024-02-21T00:56:47;96996.47;;;3.09;100.00
54038;BME280;39954;48.844;9.726;2024-02-21T00:57:53;96993.91;;;3.09;100.00
54038;BME280;39954;48.844;9.726;2024-02-21T00:58:56;96987.94;;;3.07;100.00
54038;BME280;39954;48.844;9.726;2024-02-21T01:00:01;96984.53;;;3.05;100.00
54038;BME280;39954;48.844;9.726;2024-02-21T01:01:05;96985.41;;;3.05;100.00
54038;BME280;39954;48.844;9.726;2024-02-21T01:02:09;96988.81;;;3.06;100.00
54038;BME280;39954;48.844;9.726;2024-02-21T01:03:12;96981.09;;;3.06;100.00
54038;BME280;39954;48.844;9.726;2024-02-21T01:04:17;96987.97;;;3.04;100.00
54038;BME280;39954;48.844;9.726;2024-02-21T01:05:19;96981.97;;;3.05;100.00
54038;BME280;39954;48.844;9.726;2024-02-21T01:06:24;96989.66;;;3.05;100.00
54038;BME280;39954;48.844;9.726;2024-02-21T01:07:27;96987.09;;;3.05;100.00
54038;BME280;39954;48.844;9.726;2024-02-21T01:08:32;96989.66;;;3.05;100.00
54038;BME280;39954;48.844;9.726;2024-02-21T01:09:34;96983.72;;;3.03;100.00
54038;BME280;39954;48.844;9.726;2024-02-21T01:10:39;96987.97;;;3.02;100.00
54038;BME280;39954;48.844;9.726;2024-02-21T01:11:41;96978.63;;;3.00;100.00
54038;BME280;39954;48.844;9.726;2024-02-21T01:12:48;96975.19;;;2.99;100.00
54038;BME280;39954;48.844;9.726;2024-02-21T01:13:51;96975.19;;;2.99;100.00
54038;BME280;39954;48.844;9.726;2024-02-21T01:14:56;96966.63;;;2.99;100.00
54038;BME280;39954;48.844;9.726;2024-02-21T01:15:58;96970.09;;;2.98;100.00
54038;BME280;39954;48.844;9.726;2024-02-21T01:17:00;96973.50;;;2.97;100.00
54038;BME280;39954;48.844;9.726;2024-02-21T01:18:05;96972.66;;;2.96;100.00
54038;BME280;39954;48.844;9.726;2024-02-21T01:19:08;96970.09;;;2.98;100.00
54038;BME280;39954;48.844;9.726;2024-02-21T01:20:13;96962.38;;;2.96;100.00
54038;BME280;39954;48.844;9.726;2024-02-21T01:21:16;96963.22;;;2.97;100.00
54038;BME280;39954;48.844;9.726;2024-02-21T01:22:21;96958.09;;;3.00;100.00
54038;BME280;39954;48.844;9.726;2024-02-21T01:23:23;96960.63;;;3.01;100.00
54038;BME280;39954;48.844;9.726;2024-02-21T01:24:28;96959.69;;;3.07;100.00
54038;BME280;39954;48.844;9.726;2024-02-21T01:25:30;96957.94;;;3.09;100.00
54038;BME280;39954;48.844;9.726;2024-02-21T01:26:35;96952.72;;;3.13;100.00
54038;BME280;39954;48.844;9.726;2024-02-21T01:27:37;96957.03;;;3.14;100.00
54038;BME280;39954;48.844;9.726;2024-02-21T01:28:44;96961.28;;;3.17;100.00
54038;BME280;39954;48.844;9.726;2024-02-21T01:29:46;96957.81;;;3.18;100.00
54038;BME280;39954;48.844;9.726;2024-02-21T01:30:51;96954.38;;;3.21;100.00
54038;BME280;39954;48.844;9.726;2024-02-21T01:31:54;96950.06;;;3.21;100.00
54038;BME280;39954;48.844;9.726;2024-02-21T01:32:58;96950.91;;;3.22;100.00
54038;BME280;39954;48.844;9.726;2024-02-21T01:34:01;96949.22;;;3.22;100.00
54038;BME280;39954;48.844;9.726;2024-02-21T01:35:07;96950.06;;;3.21;100.00
54038;BME280;39954;48.844;9.726;2024-02-21T01:36:09;96943.25;;;3.19;100.00
54038;BME280;39954;48.844;9.726;2024-02-21T01:37:14;96941.53;;;3.19;100.00
54038;BME280;39954;48.844;9.726;2024-02-21T01:38:16;96944.06;;;3.22;100.00
54038;BME280;39954;48.844;9.726;2024-02-21T01:39:21;96937.22;;;3.21;100.00
54038;BME280;39954;48.844;9.726;2024-02-21T01:40:23;96937.22;;;3.21;100.00
54038;BME280;39954;48.844;9.726;2024-02-21T01:41:29;96937.22;;;3.21;100.00
54038;BME280;39954;48.844;9.726;2024-02-21T01:42:32;96931.22;;;3.22;100.00
54038;BME280;39954;48.844;9.726;2024-02-21T01:43:36;96928.66;;;3.21;100.00
54038;BME280;39954;48.844;9.726;2024-02-21T01:44:41;96929.50;;;3.21;100.00
54038;BME280;39954;48.844;9.726;2024-02-21T01:45:48;96930.34;;;3.22;100.00
54038;BME280;39954;48.844;9.726;2024-02-21T01:46:51;96926.88;;;3.26;100.00
54038;BME280;39954;48.844;9.726;2024-02-21T01:47:56;96922.59;;;3.28;100.00
54038;BME280;39954;48.844;9.726;2024-02-21T01:48:59;96919.13;;;3.29;100.00
54038;BME280;39954;48.844;9.726;2024-02-21T01:50:05;96921.72;;;3.27;100.00
54038;BME280;39954;48.844;9.726;2024-02-21T01:51:07;96926.00;;;3.27;100.00
54038;BME280;39954;48.844;9.726;2024-02-21T01:52:14;96920.81;;;3.30;100.00
54038;BME280;39954;48.844;9.726;2024-02-21T01:53:20;96913.84;;;3.40;100.00
54038;BME280;39954;48.844;9.726;2024-02-21T01:54:26;96911.28;;;3.40;100.00
54038;BME280;39954;48.844;9.726;2024-02-21T01:55:30;96912.13;;;3.39;100.00
54038;BME280;39954;48.844;9.726;2024-02-21T01:56:36;96907.88;;;3.38;100.00
54038;BME280;39954;48.844;9.726;2024-02-21T01:57:38;96902.72;;;3.38;100.00
54038;BME280;39954;48.844;9.726;2024-02-21T01:58:43;96908.75;;;3.36;100.00
54038;BME280;39954;48.844;9.726;2024-02-21T01:59:49;96903.56;;;3.38;100.00
54038;BME280;39954;48.844;9.726;2024-02-21T02:00:56;96906.09;;;3.43;100.00
54038;BME280;39954;48.844;9.726;2024-02-21T02:01:58;96902.69;;;3.41;100.00
54038;BME280;39954;48.844;9.726;2024-02-21T02:03:04;96903.47;;;3.44;100.00
54038;BME280;39954;48.844;9.726;2024-02-21T02:04:07;96897.50;;;3.44;100.00
54038;BME280;39954;48.844;9.726;2024-02-21T02:05:12;96895.03;;;3.38;100.00
54038;BME280;39954;48.844;9.726;2024-02-21T02:06:14;96892.44;;;3.38;100.00
54038;BME280;39954;48.844;9.726;2024-02-21T02:07:19;96890.78;;;3.35;100.00
54038;BME280;39954;48.844;9.726;2024-02-21T02:08:22;96889.06;;;3.35;100.00
54038;BME280;39954;48.844;9.726;2024-02-21T02:09:26;96892.50;;;3.34;100.00
54038;BME280;39954;48.844;9.726;2024-02-21T02:10:28;96889.09;;;3.32;100.00
54038;BME280;39954;48.844;9.726;2024-02-21T02:11:33;96888.25;;;3.30;100.00
54038;BME280;39954;48.844;9.726;2024-02-21T02:12:36;96887.31;;;3.38;100.00
54038;BME280;39954;48.844;9.726;2024-02-21T02:13:41;96892.50;;;3.33;100.00
54038;BME280;39954;48.844;9.726;2024-02-21T02:14:43;96895.97;;;3.33;100.00
54038;BME280;39954;48.844;9.726;2024-02-21T02:15:50;96887.41;;;3.31;100.00
54038;BME280;39954;48.844;9.726;2024-02-21T02:16:53;96884.84;;;3.30;100.00
54038;BME280;39954;48.844;9.726;2024-02-21T02:17:57;96886.53;;;3.32;100.00
54038;BME280;39954;48.844;9.726;2024-02-21T02:19:00;96879.66;;;3.33;100.00
54038;BME280;39954;48.844;9.726;2024-02-21T02:20:07;96878.81;;;3.32;100.00
54038;BME280;39954;48.844;9.726;2024-02-21T02:21:15;96878.81;;;3.32;100.00
54038;BME280;39954;48.844;9.726;2024-02-21T02:22:28;96877.97;;;3.33;100.00
54038;BME280;39954;48.844;9.726;2024-02-21T02:23:34;96871.84;;;3.41;100.00
54038;BME280;39954;48.844;9.726;2024-02-21T02:24:39;96874.47;;;3.36;100.00
54038;BME280;39954;48.844;9.726;2024-02-21T02:25:41;96874.53;;;3.34;100.00
54038;BME280;39954;48.844;9.726;2024-02-21T02:26:43;96872.84;;;3.32;100.00
54038;BME280;39954;48.844;9.726;2024-02-21T02:27:48;96868.59;;;3.29;100.00
54038;BME280;39954;48.844;9.726;2024-02-21T02:28:50;96870.31;;;3.29;100.00
54038;BME280;39954;48.844;9.726;2024-02-21T02:29:55;96872.00;;;3.31;100.00
54038;BME280;39954;48.844;9.726;2024-02-21T02:30:57;96865.13;;;3.33;100.00
54038;BME280;39954;48.844;9.726;2024-02-21T02:32:02;96868.59;;;3.29;100.00
54038;BME280;39954;48.844;9.726;2024-02-21T02:33:07;96856.66;;;3.27;100.00
54038;BME280;39954;48.844;9.726;2024-02-21T02:34:12;96865.25;;;3.26;100.00
54038;BME280;39954;48.844;9.726;2024-02-21T02:35:14;96860.94;;;3.25;100.00
54038;BME280;39954;48.844;9.726;2024-02-21T02:36:19;96860.09;;;3.24;100.00
54038;BME280;39954;48.844;9.726;2024-02-21T02:37:21;96851.56;;;3.24;100.00
54038;BME280;39954;48.844;9.726;2024-02-21T02:38:26;96850.72;;;3.23;100.00
54038;BME280;39954;48.844;9.726;2024-02-21T02:39:31;96850.72;;;3.22;100.00
54038;BME280;39954;48.844;9.726;2024-02-21T02:40:37;96849.03;;;3.22;100.00
54038;BME280;39954;48.844;9.726;2024-02-21T02:41:40;96854.16;;;3.22;100.00
54038;BME280;39954;48.844;9.726;2024-02-21T02:42:45;96849.88;;;3.21;100.00
54038;BME280;39954;48.844;9.726;2024-02-21T02:43:47;96852.44;;;3.21;100.00
54038;BME280;39954;48.844;9.726;2024-02-21T02:44:52;96845.53;;;3.25;100.00
54038;BME280;39954;48.844;9.726;2024-02-21T02:45:54;96844.75;;;3.23;100.00
54038;BME280;39954;48.844;9.726;2024-02-21T02:47:00;96843.91;;;3.22;100.00
54038;BME280;39954;48.844;9.726;2024-02-21T02:48:03;96843.06;;;3.20;100.00
54038;BME280;39954;48.844;9.726;2024-02-21T02:49:08;96845.63;;;3.19;100.00
54038;BME280;39954;48.844;9.726;2024-02-21T02:50:10;96845.63;;;3.19;100.00
54038;BME280;39954;48.844;9.726;2024-02-21T02:51:13;96844.78;;;3.18;100.00
54038;BME280;39954;48.844;9.726;2024-02-21T02:52:18;96843.13;;;3.17;100.00
54038;BME280;39954;48.844;9.726;2024-02-21T02:53:20;96841.38;;;3.18;100.00
54038;BME280;39954;48.844;9.726;2024-02-21T02:54:25;96838.81;;;3.18;100.00
54038;BME280;39954;48.844;9.726;2024-02-21T02:55:30;96843.13;;;3.17;100.00
54038;BME280;39954;48.844;9.726;2024-02-21T02:56:35;96839.69;;;3.17;100.00
54038;BME280;39954;48.844;9.726;2024-02-21T02:57:37;96838.03;;;3.14;100.00
54038;BME280;39954;48.844;9.726;2024-02-21T02:58:43;96834.59;;;3.13;100.00
54038;BME280;39954;48.844;9.726;2024-02-21T02:59:47;96838.81;;;3.16;100.00
54038;BME280;39954;48.844;9.726;2024-02-21T03:00:49;96838.81;;;3.16;100.00
54038;BME280;39954;48.844;9.726;2024-02-21T03:01:54;96835.41;;;3.16;100.00
54038;BME280;39954;48.844;9.726;2024-02-21T03:02:56;96826.03;;;3.14;100.00
54038;BME280;39954;48.844;9.726;2024-02-21T03:04:01;96832.84;;;3.16;100.00
54038;BME280;39954;48.844;9.726;2024-02-21T03:05:11;96821.69;;;3.18;100.00
54038;BME280;39954;48.844;9.726;2024-02-21T03:06:17;96826.75;;;3.23;100.00
54038;BME280;39954;48.844;9.726;2024-02-21T03:07:20;96824.16;;;3.24;100.00
54038;BME280;39954;48.844;9.726;2024-02-21T03:08:22;96829.22;;;3.27;100.00
54038;BME280;39954;48.844;9.726;2024-02-21T03:09:27;96818.94;;;3.29;100.00
54038;BME280;39954;48.844;9.726;2024-02-21T03:10:33;96824.03;;;3.30;100.00
54038;BME280;39954;48.844;9.726;2024-02-21T03:11:38;96826.53;;;3.35;100.00
54038;BME280;39954;48.844;9.726;2024-02-21T03:12:43;96819.72;;;3.34;100.00
54038;BME280;39954;48.844;9.726;2024-02-21T03:13:48;96817.16;;;3.32;100.00
54038;BME280;39954;48.844;9.726;2024-02-21T03:14:50;96813.75;;;3.32;100.00
54038;BME280;39954;48.844;9.726;2024-02-21T03:15:55;96808.56;;;3.36;100.00
54038;BME280;39954;48.844;9.726;2024-02-21T03:16:58;96805.09;;;3.36;100.00
54038;BME280;39954;48.844;9.726;2024-02-21T03:18:05;96805.97;;;3.36;100.00
54038;BME280;39954;48.844;9.726;2024-02-21T03:19:08;96809.34;;;3.39;100.00
54038;BME280;39954;48.844;9.726;2024-02-21T03:20:13;96806.81;;;3.37;100.00
54038;BME280;39954;48.844;9.726;2024-02-21T03:21:15;96808.38;;;3.44;100.00
54038;BME280;39954;48.844;9.726;2024-02-21T03:22:20;96800.66;;;3.46;100.00
54038;BME280;39954;48.844;9.726;2024-02-21T03:23:22;96804.88;;;3.50;100.00
54038;BME280;39954;48.844;9.726;2024-02-21T03:24:27;96794.59;;;3.50;100.00
54038;BME280;39954;48.844;9.726;2024-02-21T03:25:34;96783.47;;;3.49;100.00
54038;BME280;39954;48.844;9.726;2024-02-21T03:26:39;96783.47;;;3.49;100.00
54038;BME280;39954;48.844;9.726;2024-02-21T03:27:42;96792.91;;;3.49;100.00
54038;BME280;39954;48.844;9.726;2024-02-21T03:28:47;96786.03;;;3.51;100.00
54038;BME280;39954;48.844;9.726;2024-02-21T03:29:50;96780.88;;;3.51;100.00
54038;BME280;39954;48.844;9.726;2024-02-21T03:30:55;96789.44;;;3.51;100.00
54038;BME280;39954;48.844;9.726;2024-02-21T03:31:57;96790.25;;;3.53;100.00
54038;BME280;39954;48.844;9.726;2024-02-21T03:33:02;96786.84;;;3.53;100.00
54038;BME280;39954;48.844;9.726;2024-02-21T03:34:05;96783.47;;;3.49;100.00
54038;BME280;39954;48.844;9.726;2024-02-21T03:35:10;96780.94;;;3.48;100.00
54038;BME280;39954;48.844;9.726;2024-02-21T03:36:15;96779.28;;;3.45;100.00
54038;BME280;39954;48.844;9.726;2024-02-21T03:37:20;96767.31;;;3.43;100.00
54038;BME280;39954;48.844;9.726;2024-02-21T03:38:22;96769.06;;;3.42;100.00
54038;BME280;39954;48.844;9.726;2024-02-21T03:39:27;96768.22;;;3.40;100.00
54038;BME280;39954;48.844;9.726;2024-02-21T03:40:35;96765.66;;;3.40;100.00
54038;BME280;39954;48.844;9.726;2024-02-21T03:41:40;96764.88;;;3.36;100.00
54038;BME280;39954;48.844;9.726;2024-02-21T03:42:42;96760.59;;;3.35;100.00
54038;BME280;39954;48.844;9.726;2024-02-21T03:43:47;96764.88;;;3.36;100.00
54038;BME280;39954;48.844;9.726;2024-02-21T03:44:49;96764.81;;;3.38;100.00
54038;BME280;39954;48.844;9.726;2024-02-21T03:45:56;96768.34;;;3.34;100.00
54038;BME280;39954;48.844;9.726;2024-02-21T03:46:58;96781.19;;;3.34;100.00
54038;BME280;39954;48.844;9.726;2024-02-21T03:48:04;96781.28;;;3.28;100.00
54038;BME280;39954;48.844;9.726;2024-02-21T03:49:07;96782.16;;;3.27;100.00
54038;BME280;39954;48.844;9.726;2024-02-21T03:50:12;96793.22;;;3.30;100.00
54038;BME280;39954;48.844;9.726;2024-02-21T03:51:14;96787.22;;;3.30;100.00
54038;BME280;39954;48.844;9.726;2024-02-21T03:52:19;96791.59;;;3.26;100.00
54038;BME280;39954;48.844;9.726;2024-02-21T03:53:21;96788.19;;;3.24;100.00
54038;BME280;39954;48.844;9.726;2024-02-21T03:54:26;96792.53;;;3.22;100.00
54038;BME280;39954;48.844;9.726;2024-02-21T03:55:29;96785.72;;;3.20;100.00
54038;BME280;39954;48.844;9.726;2024-02-21T03:56:39;96789.97;;;3.19;100.00
54038;BME280;39954;48.844;9.726;2024-02-21T03:57:41;96783.22;;;3.15;100.00
54038;BME280;39954;48.844;9.726;2024-02-21T03:58:46;96785.78;;;3.13;100.00
54038;BME280;39954;48.844;9.726;2024-02-21T03:59:50;96781.47;;;3.16;100.00
54038;BME280;39954;48.844;9.726;2024-02-21T04:00:52;96775.44;;;3.18;100.00
54038;BME280;39954;48.844;9.726;2024-02-21T04:01:57;96778.91;;;3.16;100.00
54038;BME280;39954;48.844;9.726;2024-02-21T04:02:59;96782.38;;;3.13;100.00
54038;BME280;39954;48.844;9.726;2024-02-21T04:04:04;96779.75;;;3.18;100.00
54038;BME280;39954;48.844;9.726;2024-02-21T04:05:07;96784.94;;;3.13;100.00
54038;BME280;39954;48.844;9.726;2024-02-21T04:06:13;96786.72;;;3.11;100.00
54038;BME280;39954;48.844;9.726;2024-02-21T04:07:16;96782.47;;;3.07;100.00
54038;BME280;39954;48.844;9.726;2024-02-21T04:08:21;96778.28;;;3.03;100.00
54038;BME280;39954;48.844;9.726;2024-02-21T04:09:23;96778.28;;;3.03;100.00
54038;BME280;39954;48.844;9.726;2024-02-21T04:10:28;96786.88;;;3.00;100.00
54038;BME280;39954;48.844;9.726;2024-02-21T04:11:33;96784.31;;;2.99;100.00
54038;BME280;39954;48.844;9.726;2024-02-21T04:12:40;96788.59;;;3.00;100.00
54038;BME280;39954;48.844;9.726;2024-02-21T04:13:42;96788.59;;;3.00;100.00
54038;BME280;39954;48.844;9.726;2024-02-21T04:14:50;96781.75;;;3.00;100.00
54038;BME280;39954;48.844;9.726;2024-02-21T04:15:52;96782.59;;;3.01;100.00
54038;BME280;39954;48.844;9.726;2024-02-21T04:16:57;96777.47;;;2.99;100.00
54038;BME280;39954;48.844;9.726;2024-02-21T04:17:59;96781.69;;;3.02;100.00
54038;BME280;39954;48.844;9.726;2024-02-21T04:19:05;96775.63;;;3.07;100.00
54038;BME280;39954;48.844;9.726;2024-02-21T04:20:14;96768.75;;;3.09;100.00
54038;BME280;39954;48.844;9.726;2024-02-21T04:21:19;96771.31;;;3.08;100.00
54038;BME280;39954;48.844;9.726;2024-02-21T04:22:21;96776.47;;;3.08;100.00
54038;BME280;39954;48.844;9.726;2024-02-21T04:23:26;96769.69;;;3.04;100.00
54038;BME280;39954;48.844;9.726;2024-02-21T04:24:28;96762.06;;;2.99;100.00
54038;BME280;39954;48.844;9.726;2024-02-21T04:25:33;96772.28;;;3.02;100.00
54038;BME280;39954;48.844;9.726;2024-02-21T04:26:35;96775.78;;;2.98;100.00
54038;BME280;39954;48.844;9.726;2024-02-21T04:27:43;96775.00;;;2.93;100.00
54038;BME280;39954;48.844;9.726;2024-02-21T04:28:46;96773.31;;;2.90;100.00
54038;BME280;39954;48.844;9.726;2024-02-21T04:29:50;96779.28;;;2.91;100.00
54038;BME280;39954;48.844;9.726;2024-02-21T04:30:53;96773.41;;;2.86;100.00
54038;BME280;39954;48.844;9.726;2024-02-21T04:31:57;96759.63;;;2.91;100.00
54038;BME280;39954;48.844;9.726;2024-02-21T04:33:00;96769.13;;;2.86;100.00
54038;BME280;39954;48.844;9.726;2024-02-21T04:34:06;96760.59;;;2.83;100.00
54038;BME280;39954;48.844;9.726;2024-02-21T04:35:09;96758.06;;;2.80;100.00
54038;BME280;39954;48.844;9.726;2024-02-21T04:36:14;96766.66;;;2.77;100.00
54038;BME280;39954;48.844;9.726;2024-02-21T04:37:19;96760.69;;;2.77;100.00
54038;BME280;39954;48.844;9.726;2024-02-21T04:38:22;96765.88;;;2.74;100.00
54038;BME280;39954;48.844;9.726;2024-02-21T04:39:28;96758.13;;;2.77;100.00
54038;BME280;39954;48.844;9.726;2024-02-21T04:40:30;96747.84;;;2.78;100.00
54038;BME280;39954;48.844;9.726;2024-02-21T04:41:34;96741.00;;;2.77;100.00
54038;BME280;39954;48.844;9.726;2024-02-21T04:42:37;96743.63;;;2.74;100.00
54038;BME280;39954;48.844;9.726;2024-02-21T04:43:48;96743.66;;;2.71;100.00
54038;BME280;39954;48.844;9.726;2024-02-21T04:44:51;96737.75;;;2.69;100.00
54038;BME280;39954;48.844;9.726;2024-02-21T04:45:56;96729.22;;;2.67;100.00
54038;BME280;39954;48.844;9.726;2024-02-21T04:46:58;96729.22;;;2.67;100.00
54038;BME280;39954;48.844;9.726;2024-02-21T04:48:04;96730.94;;;2.66;100.00
54038;BME280;39954;48.844;9.726;2024-02-21T04:49:06;96730.97;;;2.63;100.00
54038;BME280;39954;48.844;9.726;2024-02-21T04:50:11;96727.59;;;2.60;100.00
54038;BME280;39954;48.844;9.726;2024-02-21T04:51:15;96729.34;;;2.58;100.00
54038;BME280;39954;48.844;9.726;2024-02-21T04:52:19;96725.13;;;2.55;100.00
54038;BME280;39954;48.844;9.726;2024-02-21T04:53:22;96719.09;;;2.55;100.00
54038;BME280;39954;48.844;9.726;2024-02-21T04:54:24;96720.78;;;2.59;100.00
54038;BME280;39954;48.844;9.726;2024-02-21T04:55:29;96719.09;;;2.55;100.00
54038;BME280;39954;48.844;9.726;2024-02-21T04:56:31;96712.28;;;2.54;100.00
54038;BME280;39954;48.844;9.726;2024-02-21T04:57:36;96715.78;;;2.50;100.00
54038;BME280;39954;48.844;9.726;2024-02-21T04:58:38;96719.25;;;2.47;100.00
54038;BME280;39954;48.844;9.726;2024-02-21T04:59:43;96713.28;;;2.43;100.00
54038;BME280;39954;48.844;9.726;2024-02-21T05:00:49;96717.63;;;2.41;100.00
54038;BME280;39954;48.844;9.726;2024-02-21T05:01:52;96716.84;;;2.36;100.00
54038;BME280;39954;48.844;9.726;2024-02-21T05:02:56;96711.69;;;2.36;100.00
54038;BME280;39954;48.844;9.726;2024-02-21T05:03:59;96716.84;;;2.36;100.00
54038;BME280;39954;48.844;9.726;2024-02-21T05:05:05;96716.78;;;2.38;100.00
54038;BME280;39954;48.844;9.726;2024-02-21T05:06:07;96713.44;;;2.36;100.00
54038;BME280;39954;48.844;9.726;2024-02-21T05:07:12;96708.34;;;2.33;100.00
54038;BME280;39954;48.844;9.726;2024-02-21T05:08:14;96710.97;;;2.28;100.00
54038;BME280;39954;48.844;9.726;2024-02-21T05:09:19;96703.28;;;2.28;100.00
54038;BME280;39954;48.844;9.726;2024-02-21T05:10:21;96712.69;;;2.26;100.00
54038;BME280;39954;48.844;9.726;2024-02-21T05:11:26;96711.94;;;2.18;100.00
54038;BME280;39954;48.844;9.726;2024-02-21T05:12:29;96717.16;;;2.12;100.00
54038;BME280;39954;48.844;9.726;2024-02-21T05:13:34;96714.69;;;2.06;100.00
54038;BME280;39954;48.844;9.726;2024-02-21T05:14:37;96712.19;;;2.01;100.00
54038;BME280;39954;48.844;9.726;2024-02-21T05:15:44;96720.78;;;1.97;100.00
54038;BME280;39954;48.844;9.726;2024-02-21T05:16:47;96718.22;;;1.97;100.00
54038;BME280;39954;48.844;9.726;2024-02-21T05:17:52;96718.28;;;1.92;100.00
54038;BME280;39954;48.844;9.726;2024-02-21T05:18:55;96714.00;;;1.94;100.00
54038;BME280;39954;48.844;9.726;2024-02-21T05:20:00;96715.66;;;1.97;100.00
54038;BME280;39954;48.844;9.726;2024-02-21T05:21:03;96715.75;;;1.91;100.00
54038;BME280;39954;48.844;9.726;2024-02-21T05:22:08;96719.19;;;1.88;100.00
54038;BME280;39954;48.844;9.726;2024-02-21T05:23:10;96719.19;;;1.87;100.00
54038;BME280;39954;48.844;9.726;2024-02-21T05:24:15;96720.19;;;1.76;100.00
54038;BME280;39954;48.844;9.726;2024-02-21T05:25:17;96724.56;;;1.67;100.00
54038;BME280;39954;48.844;9.726;2024-02-21T05:26:24;96723.78;;;1.62;100.00
54038;BME280;39954;48.844;9.726;2024-02-21T05:27:26;96731.50;;;1.59;100.00
54038;BME280;39954;48.844;9.726;2024-02-21T05:28:31;96726.44;;;1.52;100.00
54038;BME280;39954;48.844;9.726;2024-02-21T05:29:33;96727.38;;;1.45;100.00
54038;BME280;39954;48.844;9.726;2024-02-21T05:30:38;96732.56;;;1.41;100.00
54038;BME280;39954;48.844;9.726;2024-02-21T05:31:57;96733.44;;;1.38;100.00
54038;BME280;39954;48.844;9.726;2024-02-21T05:33:05;96732.63;;;1.31;100.00
54038;BME280;39954;48.844;9.726;2024-02-21T05:34:08;96730.97;;;1.26;100.00
54038;BME280;39954;48.844;9.726;2024-02-21T05:35:13;96733.53;;;1.27;100.00
54038;BME280;39954;48.844;9.726;2024-02-21T05:36:15;96735.19;;;1.31;100.00
54038;BME280;39954;48.844;9.726;2024-02-21T05:37:20;96731.84;;;1.26;100.00
54038;BME280;39954;48.844;9.726;2024-02-21T05:38:22;96728.44;;;1.23;100.00
54038;BME280;39954;48.844;9.726;2024-02-21T05:39:27;96721.69;;;1.19;100.00